createdAt,value
2017-07-01T00:02:11.840Z,15.00
2017-07-01T00:04:39.274Z,15.10
2017-07-01T00:07:07.490Z,14.80
2017-07-01T00:09:34.943Z,14.80
2017-07-01T00:12:02.387Z,14.80
2017-07-01T00:14:29.836Z,14.80
2017-07-01T00:16:57.287Z,14.90
2017-07-01T00:19:24.745Z,14.70
2017-07-01T00:21:52.181Z,14.70
2017-07-01T00:24:20.403Z,14.50
2017-07-01T00:26:47.844Z,14.40
2017-07-01T00:29:15.283Z,14.60
2017-07-01T00:31:42.749Z,14.50
2017-07-01T00:34:10.267Z,14.50
2017-07-01T00:36:37.749Z,14.50
2017-07-01T00:39:05.254Z,14.60
2017-07-01T00:41:32.730Z,14.60
2017-07-01T00:44:00.167Z,14.70
2017-07-01T00:46:27.612Z,14.70
2017-07-01T00:48:55.051Z,14.90
2017-07-01T00:51:22.724Z,15.00
2017-07-01T00:53:50.159Z,15.10
2017-07-01T00:56:17.613Z,15.20
2017-07-01T00:58:45.043Z,15.30
2017-07-01T01:01:13.255Z,15.30
2017-07-01T01:03:40.699Z,15.20
2017-07-01T01:06:08.138Z,15.10
2017-07-01T01:08:36.357Z,15.30
2017-07-01T01:11:03.796Z,15.30
2017-07-01T01:13:31.239Z,15.40
2017-07-01T01:15:58.675Z,15.50
2017-07-01T01:18:26.951Z,15.40
2017-07-01T01:20:55.161Z,15.40
2017-07-01T01:23:22.603Z,15.40
2017-07-01T01:25:50.043Z,15.40
2017-07-01T01:28:18.254Z,15.40
2017-07-01T01:30:45.699Z,15.30
2017-07-01T01:33:13.143Z,15.30
2017-07-01T01:35:41.360Z,15.30
2017-07-01T01:38:08.802Z,15.30
2017-07-01T01:40:36.259Z,15.40
2017-07-01T01:43:03.699Z,15.40
2017-07-01T01:45:31.142Z,15.40
2017-07-01T01:47:58.579Z,15.50
2017-07-01T01:50:26.030Z,15.50
2017-07-01T01:52:53.466Z,15.40
2017-07-01T01:55:20.934Z,15.30
2017-07-01T01:57:48.375Z,15.40
2017-07-01T02:00:15.820Z,15.40
2017-07-01T02:02:43.280Z,15.70
2017-07-01T02:05:10.715Z,15.80
2017-07-01T02:07:38.172Z,15.80
2017-07-01T02:10:05.610Z,16.00
2017-07-01T02:12:33.071Z,15.90
2017-07-01T02:15:01.403Z,15.90
2017-07-01T02:17:40.391Z,15.90
2017-07-01T02:23:16.735Z,15.90
2017-07-01T02:25:56.804Z,15.90
2017-07-01T02:28:24.263Z,15.90
2017-07-01T02:30:51.713Z,16.00
2017-07-01T02:33:19.155Z,16.00
2017-07-01T02:36:06.014Z,15.80
2017-07-01T02:38:33.463Z,15.80
2017-07-01T02:41:00.913Z,15.90
2017-07-01T02:43:28.350Z,15.90
2017-07-01T02:46:11.599Z,15.90
2017-07-01T02:48:58.348Z,16.00
2017-07-01T02:51:37.283Z,15.90
2017-07-01T02:54:04.723Z,15.90
2017-07-01T02:56:32.164Z,15.90
2017-07-01T02:59:03.627Z,15.80
2017-07-01T03:01:31.070Z,15.80
2017-07-01T03:03:58.514Z,15.80
2017-07-01T03:06:25.959Z,15.70
2017-07-01T03:08:53.410Z,15.90
2017-07-01T03:11:20.854Z,15.90
2017-07-01T03:13:48.295Z,15.80
2017-07-01T03:16:16.506Z,15.80
2017-07-01T03:18:43.956Z,15.70
2017-07-01T03:21:11.409Z,15.70
2017-07-01T03:23:38.850Z,15.70
2017-07-01T03:26:06.299Z,15.70
2017-07-01T03:28:33.741Z,15.80
2017-07-01T03:31:01.962Z,15.70
2017-07-01T03:33:34.175Z,15.70
2017-07-01T03:36:09.567Z,15.70
2017-07-01T03:38:48.800Z,15.60
2017-07-01T03:41:34.814Z,15.80
2017-07-01T03:44:18.655Z,15.70
2017-07-01T03:46:50.927Z,15.80
2017-07-01T03:49:19.096Z,15.80
2017-07-01T03:51:46.548Z,15.70
2017-07-01T03:54:17.899Z,15.80
2017-07-01T03:56:45.347Z,15.70
2017-07-01T03:59:12.790Z,15.70
2017-07-01T04:01:40.230Z,15.80
2017-07-01T04:04:07.679Z,15.70
2017-07-01T04:06:35.118Z,15.80
2017-07-01T04:09:03.334Z,15.80
2017-07-01T04:11:30.787Z,15.80
2017-07-01T04:13:58.242Z,15.70
2017-07-01T04:16:25.678Z,15.60
2017-07-01T04:19:15.521Z,15.80
2017-07-01T04:21:42.964Z,15.80
2017-07-01T04:24:10.407Z,15.80
2017-07-01T04:26:37.849Z,15.80
2017-07-01T04:29:05.318Z,15.90
2017-07-01T04:31:32.763Z,15.70
2017-07-01T04:34:00.202Z,15.80
2017-07-01T04:36:27.648Z,15.80
2017-07-01T04:39:10.854Z,15.70
2017-07-01T04:41:42.718Z,16.10
2017-07-01T04:44:13.574Z,16.00
2017-07-01T04:46:41.019Z,16.00
2017-07-01T04:49:10.186Z,15.90
2017-07-01T04:52:04.366Z,15.90
2017-07-01T04:54:49.221Z,15.80
2017-07-01T04:57:35.283Z,15.80
2017-07-01T05:00:20.192Z,15.70
2017-07-01T05:02:47.643Z,15.90
2017-07-01T05:05:15.087Z,16.10
2017-07-01T05:08:09.178Z,16.00
2017-07-01T05:10:55.016Z,15.70
2017-07-01T05:13:22.480Z,15.80
2017-07-01T05:15:51.404Z,15.90
2017-07-01T05:18:18.870Z,15.80
2017-07-01T05:21:01.990Z,15.90
2017-07-01T05:23:30.135Z,16.00
2017-07-01T05:25:59.123Z,16.00
2017-07-01T05:28:26.572Z,15.90
2017-07-01T05:31:02.839Z,15.80
2017-07-01T05:33:32.735Z,15.80
2017-07-01T05:36:00.991Z,15.80
2017-07-01T05:38:41.007Z,15.80
2017-07-01T05:41:08.452Z,15.80
2017-07-01T05:43:40.467Z,15.90
2017-07-01T05:46:08.671Z,15.90
2017-07-01T05:48:41.950Z,15.90
2017-07-01T05:51:09.398Z,16.00
2017-07-01T05:53:36.831Z,16.00
2017-07-01T05:56:05.051Z,16.20
2017-07-01T05:58:32.501Z,16.10
2017-07-01T06:00:59.943Z,16.80
2017-07-01T06:03:27.387Z,16.40
2017-07-01T06:05:55.607Z,17.10
2017-07-01T06:08:23.055Z,17.10
2017-07-01T06:11:01.763Z,16.90
2017-07-01T06:13:41.039Z,16.80
2017-07-01T06:16:08.492Z,16.80
2017-07-01T06:18:39.411Z,17.00
2017-07-01T06:21:28.478Z,16.60
2017-07-01T06:24:00.321Z,16.50
2017-07-01T06:26:50.156Z,16.50
2017-07-01T06:29:42.082Z,16.60
2017-07-01T06:32:12.055Z,16.60
2017-07-01T06:34:51.506Z,16.60
2017-07-01T06:37:18.981Z,16.80
2017-07-01T06:39:46.425Z,16.90
2017-07-01T06:42:17.262Z,17.40
2017-07-01T06:44:52.308Z,17.00
2017-07-01T06:47:19.803Z,17.10
2017-07-01T06:49:47.254Z,17.10
2017-07-01T06:52:14.704Z,17.30
2017-07-01T06:54:42.914Z,17.20
2017-07-01T06:57:10.350Z,17.20
2017-07-01T06:59:37.799Z,17.40
2017-07-01T07:02:05.245Z,17.50
2017-07-01T07:04:33.462Z,17.30
2017-07-01T07:07:00.906Z,17.30
2017-07-01T07:09:28.347Z,17.40
2017-07-01T07:11:55.795Z,17.70
2017-07-01T07:14:23.235Z,17.90
2017-07-01T07:16:51.447Z,17.60
2017-07-01T07:19:18.904Z,17.60
2017-07-01T07:21:46.359Z,17.60
2017-07-01T07:24:13.805Z,17.80
2017-07-01T07:26:41.246Z,18.10
2017-07-01T07:29:11.419Z,17.80
2017-07-01T07:31:38.863Z,17.70
2017-07-01T07:34:06.306Z,17.80
2017-07-01T07:36:33.747Z,17.70
2017-07-01T07:39:01.194Z,17.90
2017-07-01T07:41:28.631Z,17.90
2017-07-01T07:43:56.850Z,17.60
2017-07-01T07:46:24.302Z,17.60
2017-07-01T07:48:51.759Z,17.80
2017-07-01T07:51:19.212Z,17.80
2017-07-01T07:53:46.670Z,17.90
2017-07-01T07:56:14.114Z,18.00
2017-07-01T07:58:41.571Z,17.90
2017-07-01T08:01:09.022Z,18.10
2017-07-01T08:03:36.462Z,18.20
2017-07-01T08:06:04.671Z,18.00
2017-07-01T08:08:32.137Z,18.00
2017-07-01T08:10:59.583Z,17.90
2017-07-01T08:13:27.019Z,18.10
2017-07-01T08:15:54.464Z,18.10
2017-07-01T08:18:21.914Z,18.30
2017-07-01T08:20:50.134Z,18.60
2017-07-01T08:23:17.580Z,18.60
2017-07-01T08:25:45.035Z,18.60
2017-07-01T08:28:12.479Z,18.30
2017-07-01T08:30:39.953Z,18.20
2017-07-01T08:33:07.391Z,18.10
2017-07-01T08:35:34.826Z,18.30
2017-07-01T08:38:03.034Z,18.50
2017-07-01T08:40:30.483Z,18.50
2017-07-01T08:42:57.927Z,18.50
2017-07-01T08:45:25.445Z,18.30
2017-07-01T08:47:52.896Z,18.50
2017-07-01T08:50:20.334Z,18.50
2017-07-01T08:52:48.547Z,18.30
2017-07-01T08:55:16.002Z,18.40
2017-07-01T08:57:43.447Z,18.20
2017-07-01T09:00:10.891Z,18.20
2017-07-01T09:02:38.330Z,18.30
2017-07-01T09:05:06.542Z,18.50
2017-07-01T09:07:33.983Z,18.40
2017-07-01T09:10:01.427Z,18.60
2017-07-01T09:12:28.871Z,18.90
2017-07-01T09:14:57.086Z,18.70
2017-07-01T09:17:24.531Z,18.70
2017-07-01T09:19:51.986Z,18.70
2017-07-01T09:22:19.430Z,18.70
2017-07-01T09:24:46.862Z,19.00
2017-07-01T09:27:15.088Z,19.00
2017-07-01T09:29:42.528Z,19.00
2017-07-01T09:32:09.983Z,18.80
2017-07-01T09:34:37.420Z,18.80
2017-07-01T09:37:04.867Z,18.70
2017-07-01T09:39:33.083Z,18.50
2017-07-01T09:42:00.550Z,18.40
2017-07-01T09:44:27.994Z,18.60
2017-07-01T09:46:55.430Z,18.60
2017-07-01T09:49:22.876Z,18.90
2017-07-01T09:51:51.083Z,18.80
2017-07-01T09:54:18.539Z,18.70
2017-07-01T09:56:45.986Z,18.90
2017-07-01T09:59:13.426Z,18.90
2017-07-01T10:01:40.863Z,18.90
2017-07-01T10:04:09.078Z,19.00
2017-07-01T10:06:36.523Z,19.00
2017-07-01T10:09:03.991Z,19.10
2017-07-01T10:11:31.422Z,18.90
2017-07-01T10:13:58.875Z,19.00
2017-07-01T10:16:26.324Z,19.00
2017-07-01T10:18:54.531Z,19.00
2017-07-01T10:21:21.990Z,19.00
2017-07-01T10:23:49.447Z,18.90
2017-07-01T10:26:16.902Z,19.00
2017-07-01T10:28:44.352Z,19.10
2017-07-01T10:31:11.832Z,19.20
2017-07-01T10:33:39.275Z,19.20
2017-07-01T10:36:06.738Z,19.40
2017-07-01T10:38:34.182Z,19.30
2017-07-01T10:41:01.627Z,19.20
2017-07-01T10:43:29.075Z,19.40
2017-07-01T10:45:56.518Z,19.20
2017-07-01T10:48:24.739Z,19.30
2017-07-01T10:50:52.183Z,19.30
2017-07-01T10:53:19.639Z,19.20
2017-07-01T10:55:47.089Z,19.30
2017-07-01T10:58:14.523Z,19.10
2017-07-01T11:00:41.967Z,19.10
2017-07-01T11:03:10.184Z,19.10
2017-07-01T11:05:37.628Z,19.00
2017-07-01T11:08:05.073Z,19.20
2017-07-01T11:10:32.518Z,19.20
2017-07-01T11:13:00.002Z,19.20
2017-07-01T11:15:27.439Z,19.40
2017-07-01T11:17:55.083Z,19.30
2017-07-01T11:20:23.294Z,19.50
2017-07-01T11:22:50.739Z,19.50
2017-07-01T11:25:18.206Z,19.80
2017-07-01T11:27:45.658Z,20.00
2017-07-01T11:30:13.092Z,20.00
2017-07-01T11:32:40.547Z,20.30
2017-07-01T11:35:08.750Z,20.00
2017-07-01T11:37:36.209Z,20.00
2017-07-01T11:40:03.664Z,20.30
2017-07-01T11:42:31.123Z,20.50
2017-07-01T11:44:58.574Z,20.50
2017-07-01T11:47:26.035Z,20.50
2017-07-01T11:49:53.482Z,20.50
2017-07-01T11:52:20.924Z,20.20
2017-07-01T11:54:48.362Z,20.30
2017-07-01T11:57:15.799Z,20.00
2017-07-01T11:59:43.251Z,19.90
2017-07-01T12:02:10.695Z,19.80
2017-07-01T12:04:38.136Z,20.30
2017-07-01T12:07:05.583Z,20.20
2017-07-01T12:09:33.041Z,20.10
2017-07-01T12:12:00.491Z,20.00
2017-07-01T12:14:27.947Z,20.10
2017-07-01T12:16:55.390Z,20.10
2017-07-01T12:19:22.840Z,20.00
2017-07-01T12:21:50.293Z,20.10
2017-07-01T12:24:17.727Z,20.00
2017-07-01T12:26:45.955Z,19.30
2017-07-01T12:29:13.403Z,19.30
2017-07-01T12:31:40.859Z,19.20
2017-07-01T12:34:08.309Z,19.30
2017-07-01T12:36:35.776Z,19.30
2017-07-01T12:39:03.231Z,19.40
2017-07-01T12:41:30.686Z,19.50
2017-07-01T12:43:58.143Z,19.30
2017-07-01T12:46:25.610Z,19.50
2017-07-01T12:48:53.053Z,19.30
2017-07-01T12:51:20.508Z,19.40
2017-07-01T12:53:47.964Z,19.60
2017-07-01T12:56:15.406Z,19.50
2017-07-01T12:58:42.873Z,19.20
2017-07-01T13:01:10.303Z,19.10
2017-07-01T13:03:37.751Z,19.20
2017-07-01T13:06:05.962Z,19.40
2017-07-01T13:08:33.419Z,19.30
2017-07-01T13:11:00.876Z,19.40
2017-07-01T13:13:28.335Z,19.40
2017-07-01T13:15:55.787Z,19.20
2017-07-01T13:18:23.230Z,19.30
2017-07-01T13:20:50.678Z,19.20
2017-07-01T13:23:18.122Z,19.40
2017-07-01T13:25:46.355Z,19.80
2017-07-01T13:28:13.811Z,19.80
2017-07-01T13:30:41.260Z,20.00
2017-07-01T13:33:08.697Z,20.00
2017-07-01T13:35:36.155Z,19.80
2017-07-01T13:38:03.617Z,20.10
2017-07-01T13:40:31.095Z,20.00
2017-07-01T13:42:58.543Z,20.10
2017-07-01T13:45:26.006Z,20.10
2017-07-01T13:47:53.459Z,19.80
2017-07-01T13:50:20.910Z,19.60
2017-07-01T13:52:48.378Z,19.60
2017-07-01T13:55:15.831Z,19.70
2017-07-01T13:57:43.278Z,19.80
2017-07-01T14:00:10.727Z,19.90
2017-07-01T14:02:38.203Z,19.80
2017-07-01T14:05:05.656Z,20.10
2017-07-01T14:07:33.110Z,20.00
2017-07-01T14:10:00.567Z,20.00
2017-07-01T14:12:28.015Z,19.70
2017-07-01T14:14:55.458Z,19.70
2017-07-01T14:17:22.916Z,19.80
2017-07-01T14:19:50.367Z,19.90
2017-07-01T14:22:17.807Z,20.00
2017-07-01T14:24:45.258Z,20.20
2017-07-01T14:27:12.703Z,20.50
2017-07-01T14:29:40.158Z,20.60
2017-07-01T14:32:08.379Z,20.60
2017-07-01T14:34:35.826Z,20.50
2017-07-01T14:37:03.295Z,20.60
2017-07-01T14:39:30.739Z,20.70
2017-07-01T14:41:58.178Z,21.00
2017-07-01T14:44:25.629Z,21.30
2017-07-01T14:46:53.062Z,21.60
2017-07-01T14:49:21.280Z,21.70
2017-07-01T14:51:48.714Z,21.70
2017-07-01T14:54:16.192Z,21.80
2017-07-01T14:56:43.651Z,21.90
2017-07-01T14:59:11.095Z,21.60
2017-07-01T15:01:38.535Z,22.00
2017-07-01T15:04:05.976Z,22.10
2017-07-01T15:06:34.199Z,21.90
2017-07-01T15:09:01.649Z,21.80
2017-07-01T15:11:29.117Z,20.80
2017-07-01T15:13:56.559Z,20.60
2017-07-01T15:16:24.003Z,20.80
2017-07-01T15:18:51.446Z,20.70
2017-07-01T15:21:18.904Z,20.80
2017-07-01T15:23:46.351Z,21.30
2017-07-01T15:26:13.833Z,21.20
2017-07-01T15:28:41.272Z,21.20
2017-07-01T15:31:08.711Z,21.00
2017-07-01T15:33:36.947Z,20.80
2017-07-01T15:36:05.152Z,20.80
2017-07-01T15:38:33.358Z,20.70
2017-07-01T15:41:00.803Z,20.60
2017-07-01T15:43:28.247Z,20.70
2017-07-01T15:45:56.463Z,20.40
2017-07-01T15:48:23.899Z,20.50
2017-07-01T15:50:51.338Z,20.50
2017-07-01T15:53:18.779Z,20.90
2017-07-01T15:55:46.999Z,20.40
2017-07-01T15:58:14.449Z,20.30
2017-07-01T16:00:53.609Z,20.50
2017-07-01T16:03:21.047Z,20.50
2017-07-01T16:05:48.492Z,20.80
2017-07-01T16:08:15.926Z,21.00
2017-07-01T16:10:43.371Z,20.50
2017-07-01T16:13:11.583Z,20.60
2017-07-01T16:15:39.026Z,20.50
2017-07-01T16:18:06.471Z,20.60
2017-07-01T16:20:33.915Z,20.40
2017-07-01T16:23:02.140Z,20.20
2017-07-01T16:25:29.582Z,20.20
2017-07-01T16:27:57.039Z,20.30
2017-07-01T16:30:24.475Z,20.20
2017-07-01T16:32:51.926Z,20.10
2017-07-01T16:35:19.364Z,19.90
2017-07-01T16:37:47.595Z,19.80
2017-07-01T16:40:15.048Z,19.80
2017-07-01T16:42:42.495Z,19.70
2017-07-01T16:45:09.943Z,19.70
2017-07-01T16:47:37.375Z,19.60
2017-07-01T16:50:04.818Z,19.30
2017-07-01T16:52:33.022Z,19.50
2017-07-01T16:55:00.514Z,19.40
2017-07-01T16:57:27.959Z,19.50
2017-07-01T16:59:55.408Z,19.20
2017-07-01T17:02:22.847Z,19.20
2017-07-01T17:04:50.315Z,19.20
2017-07-01T17:07:17.759Z,19.20
2017-07-01T17:09:45.194Z,19.00
2017-07-01T17:12:13.411Z,18.70
2017-07-01T17:14:40.856Z,18.70
2017-07-01T17:17:08.317Z,18.70
2017-07-01T17:19:35.758Z,18.70
2017-07-01T17:22:03.214Z,18.80
2017-07-01T17:24:30.650Z,18.70
2017-07-01T17:26:58.114Z,18.70
2017-07-01T17:29:25.551Z,18.70
2017-07-01T17:31:53.767Z,18.60
2017-07-01T17:34:21.223Z,18.60
2017-07-01T17:36:48.658Z,18.70
2017-07-01T17:39:16.107Z,18.60
2017-07-01T17:41:43.542Z,18.60
2017-07-01T17:44:11.767Z,18.50
2017-07-01T17:46:39.208Z,18.50
2017-07-01T17:49:06.647Z,18.50
2017-07-01T17:51:34.090Z,18.50
2017-07-01T17:54:02.302Z,18.40
2017-07-01T17:56:29.738Z,18.40
2017-07-01T17:58:57.174Z,18.50
2017-07-01T18:01:25.395Z,18.40
2017-07-01T18:03:52.830Z,18.40
2017-07-01T18:06:20.270Z,18.40
2017-07-01T18:08:48.478Z,18.20
2017-07-01T18:11:15.930Z,18.20
2017-07-01T18:13:43.369Z,18.00
2017-07-01T18:16:10.811Z,17.90
2017-07-01T18:18:39.023Z,17.50
2017-07-01T18:21:06.499Z,17.50
2017-07-01T18:23:33.947Z,17.40
2017-07-01T18:26:01.393Z,17.30
2017-07-01T18:28:28.849Z,17.20
2017-07-01T18:30:56.297Z,17.10
2017-07-01T18:33:23.746Z,17.00
2017-07-01T18:35:51.187Z,17.00
2017-07-01T18:38:18.631Z,16.80
2017-07-01T18:40:46.848Z,16.70
2017-07-01T18:43:14.304Z,16.60
2017-07-01T18:45:41.736Z,16.60
2017-07-01T18:48:09.218Z,16.60
2017-07-01T18:50:36.651Z,16.50
2017-07-01T18:53:04.091Z,16.50
2017-07-01T18:55:32.302Z,16.50
2017-07-01T18:57:59.756Z,16.40
2017-07-01T19:00:27.211Z,16.40
2017-07-01T19:02:54.647Z,16.40
2017-07-01T19:05:22.091Z,16.40
2017-07-01T19:07:50.336Z,16.30
2017-07-01T19:10:17.760Z,16.30
2017-07-01T19:12:45.204Z,16.30
2017-07-01T19:15:12.669Z,16.30
2017-07-01T19:17:40.102Z,16.30
2017-07-01T19:20:07.547Z,16.30
2017-07-01T19:22:35.767Z,16.30
2017-07-01T19:25:03.212Z,16.30
2017-07-01T19:27:30.662Z,16.30
2017-07-01T19:29:58.106Z,16.30
2017-07-01T19:32:25.551Z,16.40
2017-07-01T19:34:52.995Z,16.30
2017-07-01T19:37:21.212Z,16.30
2017-07-01T19:39:48.666Z,16.30
2017-07-01T19:42:16.122Z,16.40
2017-07-01T19:44:43.563Z,16.30
2017-07-01T19:47:11.002Z,16.30
2017-07-01T19:49:38.458Z,16.30
2017-07-01T19:52:06.663Z,16.40
2017-07-01T19:54:34.114Z,16.40
2017-07-01T19:57:01.556Z,16.40
2017-07-01T19:59:29.004Z,16.40
2017-07-01T20:01:56.455Z,16.40
2017-07-01T20:04:23.899Z,16.40
2017-07-01T20:06:52.114Z,16.40
2017-07-01T20:09:19.579Z,16.30
2017-07-01T20:11:47.014Z,16.40
2017-07-01T20:14:14.488Z,16.30
2017-07-01T20:16:41.930Z,16.30
2017-07-01T20:19:09.362Z,16.40
2017-07-01T20:21:36.807Z,16.40
2017-07-01T20:24:05.023Z,16.30
2017-07-01T20:26:32.485Z,16.30
2017-07-01T20:28:59.940Z,16.30
2017-07-01T20:31:27.402Z,16.30
2017-07-01T20:33:54.850Z,16.30
2017-07-01T20:36:22.307Z,16.20
2017-07-01T20:38:49.754Z,16.20
2017-07-01T20:41:17.219Z,16.20
2017-07-01T20:43:44.662Z,16.20
2017-07-01T20:46:12.098Z,16.20
2017-07-01T20:48:40.323Z,16.20
2017-07-01T20:51:07.766Z,16.20
2017-07-01T20:53:35.216Z,16.10
2017-07-01T20:56:02.675Z,16.10
2017-07-01T20:58:30.128Z,16.20
2017-07-01T21:00:57.562Z,16.30
2017-07-01T21:03:25.013Z,16.10
2017-07-01T21:05:52.451Z,16.20
2017-07-01T21:08:20.671Z,16.20
2017-07-01T21:10:48.115Z,16.10
2017-07-01T21:13:15.583Z,16.10
2017-07-01T21:15:43.016Z,16.10
2017-07-01T21:18:10.459Z,16.10
2017-07-01T21:20:38.671Z,16.00
2017-07-01T21:23:06.126Z,16.00
2017-07-01T21:25:33.570Z,16.10
2017-07-01T21:28:01.012Z,16.10
2017-07-01T21:30:28.457Z,16.00
2017-07-01T21:32:56.708Z,16.10
2017-07-01T21:35:24.166Z,16.00
2017-07-01T21:37:51.623Z,16.00
2017-07-01T21:40:19.063Z,16.10
2017-07-01T21:42:46.505Z,16.20
2017-07-01T21:45:13.950Z,16.20
2017-07-01T21:47:41.408Z,16.10
2017-07-01T21:50:08.847Z,16.10
2017-07-01T21:52:36.295Z,16.10
2017-07-01T21:55:03.738Z,16.10
2017-07-01T21:57:31.982Z,16.10
2017-07-01T21:59:59.415Z,16.10
2017-07-01T22:02:26.883Z,16.20
2017-07-01T22:04:54.327Z,16.10
2017-07-01T22:07:21.778Z,16.10
2017-07-01T22:09:49.231Z,16.00
2017-07-01T22:12:16.671Z,16.00
2017-07-01T22:14:44.119Z,16.10
2017-07-01T22:17:11.555Z,16.10
2017-07-01T22:19:39.772Z,16.00
2017-07-01T22:22:07.205Z,16.00
2017-07-01T22:24:34.647Z,16.10
2017-07-01T22:27:02.859Z,15.90
2017-07-01T22:29:30.335Z,15.90
2017-07-01T22:31:57.781Z,15.90
2017-07-01T22:34:25.227Z,15.90
2017-07-01T22:36:52.683Z,16.00
2017-07-01T22:39:20.118Z,15.90
2017-07-01T22:41:47.563Z,16.00
2017-07-01T22:44:15.767Z,16.00
2017-07-01T22:46:43.226Z,16.00
2017-07-01T22:49:10.671Z,16.00
2017-07-01T22:51:38.111Z,15.90
2017-07-01T22:54:05.551Z,15.90
2017-07-01T22:56:33.766Z,15.80
2017-07-01T22:59:01.207Z,15.80
2017-07-01T23:01:28.659Z,15.90
2017-07-01T23:03:56.095Z,15.80
2017-07-01T23:06:23.539Z,15.80
2017-07-01T23:08:50.979Z,15.80
2017-07-01T23:11:18.423Z,15.80
2017-07-01T23:13:45.871Z,15.80
2017-07-01T23:16:13.315Z,15.70
2017-07-01T23:18:40.773Z,15.80
2017-07-01T23:21:08.211Z,15.80
2017-07-01T23:23:35.655Z,15.80
2017-07-01T23:26:03.092Z,16.00
2017-07-01T23:28:31.311Z,15.90
2017-07-01T23:30:58.778Z,15.90
2017-07-01T23:33:26.226Z,15.80
2017-07-01T23:35:53.680Z,15.80
2017-07-01T23:38:21.124Z,15.80
2017-07-01T23:40:48.562Z,15.80
2017-07-01T23:43:16.000Z,15.90
2017-07-01T23:45:44.223Z,16.00
2017-07-01T23:48:11.676Z,16.00
2017-07-01T23:50:39.130Z,15.90
2017-07-01T23:53:06.562Z,15.80
2017-07-01T23:55:34.045Z,15.80
2017-07-01T23:58:01.489Z,15.90
